Time;durP1;ratioP1;P1;durP2;ratioP2;P2;SDS_P1;SDS_P2;PMS_P1;PMS_P2;Temp;Humidity;BMP_temperature;BMP_pressure;BME280_temperature;BME280_humidity;BME280_pressure;Samples;Min_cycle;Max_cycle;Signal;HPM_P1;HPM_P2
2022/10/08 00:00:47;;;;;;;8.63;3.45;;;7.80;99.90;;;;;;7340056;32;20146;-60
2022/10/08 00:04:48;;;;;;;8.05;3.37;;;7.90;99.90;;;;;;7349438;32;20149;-61
2022/10/08 00:08:56;;;;;;;11.30;3.60;;;7.90;99.90;;;;;;7335023;32;20111;-61
2022/10/08 00:13:02;;;;;;;14.52;3.70;;;8.00;99.90;;;;;;7336419;32;20139;-59
2022/10/08 00:17:04;;;;;;;13.57;3.97;;;8.10;99.90;;;;;;7342362;32;20138;-60
2022/10/08 00:21:10;;;;;;;13.77;4.00;;;8.30;99.90;;;;;;7339884;32;20371;-60
2022/10/08 00:25:11;;;;;;;10.95;2.92;;;8.40;99.90;;;;;;7341522;32;20843;-60
2022/10/08 00:29:16;;;;;;;10.55;2.72;;;8.40;99.90;;;;;;7339109;32;20226;-60
2022/10/08 00:33:17;;;;;;;11.48;3.67;;;8.40;99.90;;;;;;7340312;32;20551;-61
2022/10/08 00:37:19;;;;;;;9.57;3.55;;;8.40;99.90;;;;;;7336531;32;20441;-59
2022/10/08 00:41:23;;;;;;;8.52;3.08;;;8.50;99.90;;;;;;7345350;32;20111;-59
2022/10/08 00:45:25;;;;;;;12.18;4.00;;;8.50;99.90;;;;;;7344834;32;20206;-61
2022/10/08 00:49:27;;;;;;;11.95;3.60;;;8.50;99.90;;;;;;7339930;32;20167;-61
2022/10/08 00:53:29;;;;;;;10.02;3.00;;;8.60;99.90;;;;;;7340290;32;20115;-60
2022/10/08 00:57:33;;;;;;;12.55;3.05;;;8.60;99.90;;;;;;7346848;32;20221;-61
2022/10/08 01:01:34;;;;;;;10.85;2.97;;;8.70;99.90;;;;;;7347076;32;20115;-64
2022/10/08 01:05:57;;;;;;;10.40;3.47;;;8.60;99.90;;;;;;7347399;32;20103;-61
2022/10/08 01:10:24;;;;;;;14.23;3.08;;;8.60;99.90;;;;;;7359935;32;20522;-63
2022/10/08 01:14:46;;;;;;;17.02;3.28;;;8.60;99.90;;;;;;7344364;32;20111;-60
2022/10/08 01:18:59;;;;;;;12.20;3.05;;;8.60;99.90;;;;;;7344335;32;20108;-61
2022/10/08 01:23:12;;;;;;;12.55;3.17;;;8.60;99.90;;;;;;7348008;32;20175;-60
2022/10/08 01:27:31;;;;;;;8.88;3.10;;;8.60;99.90;;;;;;7352433;32;20263;-60
2022/10/08 01:31:46;;;;;;;12.75;2.97;;;8.60;99.90;;;;;;7346180;32;20119;-60
2022/10/08 01:35:55;;;;;;;12.43;3.03;;;8.60;99.90;;;;;;7346670;32;20128;-60
2022/10/08 01:40:01;;;;;;;14.00;3.12;;;8.70;99.90;;;;;;7339567;32;20134;-60
2022/10/08 01:44:16;;;;;;;11.38;2.95;;;8.80;99.90;;;;;;7345383;32;20111;-60
2022/10/08 01:48:22;;;;;;;12.70;2.83;;;8.80;99.90;;;;;;7337128;32;20134;-62
2022/10/08 01:52:27;;;;;;;11.77;3.17;;;8.90;99.90;;;;;;7351465;32;20232;-61
2022/10/08 01:56:32;;;;;;;8.98;2.78;;;9.00;99.90;;;;;;7345323;32;20145;-61
2022/10/08 02:00:37;;;;;;;10.02;2.70;;;9.00;99.90;;;;;;7348200;32;20238;-61
2022/10/08 02:04:39;;;;;;;10.13;2.78;;;9.10;99.90;;;;;;7345031;32;20153;-62
2022/10/08 02:08:42;;;;;;;10.45;3.47;;;9.10;99.90;;;;;;7346571;32;20115;-60
2022/10/08 02:12:44;;;;;;;10.45;3.12;;;9.10;99.90;;;;;;7346895;32;20198;-61
2022/10/08 02:16:59;;;;;;;12.25;3.00;;;9.10;99.90;;;;;;7341637;32;20510;-60
2022/10/08 02:21:07;;;;;;;8.13;3.03;;;9.10;99.90;;;;;;7344461;32;20205;-62
2022/10/08 02:25:15;;;;;;;11.45;3.17;;;9.20;99.90;;;;;;7346200;32;20491;-61
2022/10/08 02:29:41;;;;;;;11.70;3.05;;;9.30;99.90;;;;;;7343958;32;20452;-63
2022/10/08 02:34:00;;;;;;;11.55;3.20;;;9.40;99.90;;;;;;7339882;32;20110;-60
2022/10/08 02:38:18;;;;;;;10.15;2.87;;;9.50;99.90;;;;;;7340119;32;20130;-60
2022/10/08 02:42:23;;;;;;;12.23;2.75;;;9.70;99.90;;;;;;7345297;32;20107;-61
2022/10/08 02:46:30;;;;;;;9.27;2.80;;;9.80;99.90;;;;;;7344062;32;20194;-62
2022/10/08 02:50:35;;;;;;;13.60;3.47;;;10.00;99.90;;;;;;7345265;32;20106;-61
2022/10/08 02:54:40;;;;;;;11.55;2.92;;;10.00;99.90;;;;;;7333832;32;20107;-60
2022/10/08 02:58:42;;;;;;;11.30;2.60;;;10.20;99.90;;;;;;7337954;32;20135;-61
2022/10/08 03:02:55;;;;;;;9.10;2.65;;;10.20;99.90;;;;;;7349737;32;20220;-61
2022/10/08 03:06:58;;;;;;;11.45;2.60;;;10.30;99.90;;;;;;7346117;32;20108;-60
2022/10/08 03:11:01;;;;;;;6.70;2.47;;;10.50;99.90;;;;;;7344803;32;20542;-61
2022/10/08 03:15:03;;;;;;;7.15;2.35;;;10.40;99.90;;;;;;7349214;32;20094;-61
2022/10/08 03:19:09;;;;;;;11.50;2.40;;;10.60;99.90;;;;;;7340781;32;20206;-60
2022/10/08 03:23:14;;;;;;;10.02;2.92;;;10.50;99.90;;;;;;7342476;32;20104;-61
2022/10/08 03:27:16;;;;;;;8.70;2.60;;;10.50;99.90;;;;;;7346870;32;20142;-61
2022/10/08 03:31:18;;;;;;;9.95;3.05;;;10.40;99.90;;;;;;7343256;32;20114;-61
2022/10/08 03:35:20;;;;;;;8.65;2.60;;;10.40;99.90;;;;;;7348125;32;20119;-61
2022/10/08 03:39:22;;;;;;;9.18;2.67;;;10.40;99.90;;;;;;7349181;32;20115;-60
2022/10/08 03:43:29;;;;;;;9.02;2.40;;;10.40;99.90;;;;;;7335987;32;20175;-62
2022/10/08 03:47:31;;;;;;;9.75;2.65;;;10.40;99.90;;;;;;7341197;32;20161;-60
2022/10/08 03:51:32;;;;;;;12.35;3.30;;;10.50;99.90;;;;;;7340670;32;20134;-61
2022/10/08 03:55:34;;;;;;;16.37;3.08;;;10.50;99.90;;;;;;7340892;32;20232;-63
2022/10/08 03:59:36;;;;;;;15.85;3.17;;;10.60;99.90;;;;;;7346920;32;20145;-62
2022/10/08 04:03:38;;;;;;;8.07;2.45;;;10.60;99.90;;;;;;7339711;32;20111;-61
2022/10/08 04:07:39;;;;;;;14.55;2.80;;;10.60;99.90;;;;;;7347758;32;20103;-62
2022/10/08 04:11:41;;;;;;;15.85;3.10;;;10.60;99.90;;;;;;7342664;32;20130;-62
2022/10/08 04:15:46;;;;;;;10.52;2.90;;;10.60;99.90;;;;;;7340691;32;20143;-60
2022/10/08 04:19:47;;;;;;;17.52;2.78;;;10.60;99.90;;;;;;7344424;32;20139;-62
2022/10/08 04:23:50;;;;;;;11.82;2.70;;;10.70;99.90;;;;;;7343653;32;20111;-63
2022/10/08 04:27:51;;;;;;;11.38;3.12;;;10.80;99.90;;;;;;7342512;32;20107;-61
2022/10/08 04:31:53;;;;;;;9.68;3.17;;;10.90;99.90;;;;;;7340029;32;20579;-61
2022/10/08 04:35:55;;;;;;;11.25;2.78;;;10.70;99.90;;;;;;7338809;32;20189;-64
2022/10/08 04:40:01;;;;;;;9.18;2.47;;;10.70;99.90;;;;;;7334988;32;20190;-62
2022/10/08 04:44:03;;;;;;;10.18;3.00;;;10.70;99.90;;;;;;7342015;32;20129;-61
2022/10/08 04:48:04;;;;;;;19.10;3.35;;;10.80;99.90;;;;;;7333027;32;20198;-63
2022/10/08 04:52:06;;;;;;;9.77;3.10;;;10.80;99.90;;;;;;7339380;32;20637;-60
2022/10/08 04:56:19;;;;;;;10.65;2.83;;;10.80;99.90;;;;;;7343550;32;20160;-60
2022/10/08 05:00:23;;;;;;;14.68;3.10;;;10.80;99.90;;;;;;7343242;32;20666;-60
2022/10/08 05:04:25;;;;;;;13.20;2.97;;;10.90;99.90;;;;;;7343035;32;20205;-61
2022/10/08 05:08:28;;;;;;;8.73;2.80;;;10.90;99.90;;;;;;7341255;32;20110;-61
2022/10/08 05:12:29;;;;;;;12.82;2.92;;;10.90;99.90;;;;;;7341686;32;20224;-60
2022/10/08 05:16:31;;;;;;;10.20;2.92;;;10.90;99.90;;;;;;7341063;32;20107;-60
2022/10/08 05:20:35;;;;;;;13.40;2.75;;;10.90;99.90;;;;;;7345446;32;20098;-61
2022/10/08 05:24:37;;;;;;;10.55;3.00;;;10.80;99.90;;;;;;7335345;32;20115;-62
2022/10/08 05:28:38;;;;;;;13.75;3.90;;;10.80;99.90;;;;;;7344198;32;20126;-62
2022/10/08 05:32:40;;;;;;;15.35;4.55;;;10.80;99.90;;;;;;7334258;32;20127;-63
2022/10/08 05:36:42;;;;;;;12.75;4.07;;;10.80;99.90;;;;;;7345025;32;21029;-61
2022/10/08 05:40:44;;;;;;;12.13;4.07;;;10.80;99.90;;;;;;7339886;32;20172;-60
2022/10/08 05:44:45;;;;;;;15.73;5.12;;;10.80;99.90;;;;;;7339345;32;20269;-62
2022/10/08 05:48:51;;;;;;;15.27;4.87;;;10.80;99.90;;;;;;7343824;32;20103;-61
2022/10/08 05:52:52;;;;;;;11.85;4.50;;;10.90;99.90;;;;;;7343567;32;20152;-66
2022/10/08 05:56:54;;;;;;;11.23;4.37;;;10.90;99.90;;;;;;7347860;32;20573;-66
2022/10/08 06:01:01;;;;;;;13.48;5.43;;;10.80;99.90;;;;;;7349495;32;20202;-64
2022/10/08 06:05:03;;;;;;;12.80;5.68;;;10.80;99.90;;;;;;7343695;32;20107;-64
2022/10/08 06:09:06;;;;;;;10.68;4.45;;;10.80;99.90;;;;;;7343826;32;20118;-66
2022/10/08 06:13:08;;;;;;;10.80;4.03;;;10.80;99.90;;;;;;7340978;32;20242;-64
2022/10/08 06:17:09;;;;;;;10.65;4.40;;;10.80;99.90;;;;;;7346152;32;20531;-65
2022/10/08 06:21:13;;;;;;;15.02;5.00;;;10.80;99.90;;;;;;7345661;32;20120;-66
2022/10/08 06:25:15;;;;;;;14.57;5.07;;;10.80;99.90;;;;;;7341640;32;20195;-64
2022/10/08 06:29:17;;;;;;;12.15;4.68;;;10.80;99.90;;;;;;7342508;32;20226;-64
2022/10/08 06:33:19;;;;;;;14.10;5.55;;;10.90;99.90;;;;;;7348004;32;20531;-66
2022/10/08 06:37:20;;;;;;;15.02;5.30;;;11.00;99.90;;;;;;7343179;32;20130;-65
2022/10/08 06:41:24;;;;;;;10.60;5.18;;;11.10;99.90;;;;;;7345128;32;20141;-64
2022/10/08 06:45:25;;;;;;;13.65;5.50;;;11.10;99.90;;;;;;7350319;32;20226;-65
2022/10/08 06:49:27;;;;;;;10.55;5.65;;;11.30;99.90;;;;;;7341553;32;20730;-64
2022/10/08 06:53:29;;;;;;;8.98;5.25;;;11.40;99.90;;;;;;7343944;32;20135;-65
2022/10/08 06:57:31;;;;;;;15.13;7.87;;;11.50;99.90;;;;;;7343678;32;20191;-64
2022/10/08 07:01:33;;;;;;;15.70;8.52;;;11.50;99.90;;;;;;7346902;32;20137;-65
2022/10/08 07:05:36;;;;;;;14.68;8.43;;;11.50;99.90;;;;;;7338986;32;20203;-64
2022/10/08 07:09:38;;;;;;;20.98;9.82;;;11.50;99.90;;;;;;7343868;32;20530;-65
2022/10/08 07:13:40;;;;;;;16.48;9.55;;;11.60;99.90;;;;;;7344853;32;20107;-66
2022/10/08 07:17:41;;;;;;;18.48;10.15;;;11.60;99.90;;;;;;7343982;32;20115;-65
2022/10/08 07:21:43;;;;;;;18.05;10.25;;;11.70;99.90;;;;;;7336973;32;21154;-64
2022/10/08 07:26:05;;;;;;;19.98;11.55;;;11.70;99.90;;;;;;7335065;32;20335;-64
2022/10/08 07:30:07;;;;;;;20.48;12.25;;;11.70;99.90;;;;;;7340739;32;20108;-64
2022/10/08 07:34:12;;;;;;;20.30;11.57;;;11.80;99.90;;;;;;7336049;32;20504;-65
2022/10/08 07:38:17;;;;;;;18.33;11.38;;;11.80;99.90;;;;;;7340848;32;20483;-64
2022/10/08 07:42:19;;;;;;;21.37;11.75;;;11.90;99.90;;;;;;7343142;32;20570;-64
2022/10/08 07:46:21;;;;;;;21.10;12.35;;;11.90;99.90;;;;;;7339295;32;20434;-66
2022/10/08 07:50:23;;;;;;;21.12;12.30;;;12.00;99.90;;;;;;7348242;32;20467;-65
2022/10/08 07:54:25;;;;;;;25.02;13.55;;;12.10;99.90;;;;;;7338447;32;20107;-64
2022/10/08 07:58:26;;;;;;;26.02;14.30;;;12.10;99.90;;;;;;7341160;32;20116;-64
2022/10/08 08:02:28;;;;;;;25.23;14.43;;;12.20;99.90;;;;;;7343947;32;20459;-66
2022/10/08 08:06:32;;;;;;;22.33;13.93;;;12.20;99.90;;;;;;7338236;32;20119;-65
2022/10/08 08:10:33;;;;;;;23.85;14.25;;;12.30;99.90;;;;;;7340029;32;20236;-58
2022/10/08 08:14:35;;;;;;;23.45;14.13;;;12.40;99.90;;;;;;7342624;32;20208;-61
2022/10/08 08:18:40;;;;;;;24.17;15.18;;;12.50;99.90;;;;;;7345164;32;20107;-65
2022/10/08 08:22:41;;;;;;;23.02;14.50;;;12.60;99.90;;;;;;7342186;32;20104;-65
2022/10/08 08:26:43;;;;;;;24.73;13.68;;;12.70;99.90;;;;;;7338685;32;20256;-65
2022/10/08 08:30:45;;;;;;;25.90;13.93;;;12.70;99.90;;;;;;7337477;32;20108;-64
2022/10/08 08:34:47;;;;;;;24.08;14.20;;;12.70;99.90;;;;;;7340981;32;20131;-65
2022/10/08 08:38:48;;;;;;;24.87;13.43;;;12.80;99.90;;;;;;7339225;32;20115;-66
2022/10/08 08:42:55;;;;;;;23.67;13.75;;;12.80;99.90;;;;;;7340759;32;20734;-64
2022/10/08 08:47:15;;;;;;;19.48;11.85;;;12.80;99.90;;;;;;7340773;32;20116;-64
2022/10/08 08:51:16;;;;;;;22.00;10.98;;;13.00;99.90;;;;;;7347509;32;20126;-63
2022/10/08 08:55:25;;;;;;;23.50;10.82;;;13.00;99.90;;;;;;7332583;32;20123;-65
2022/10/08 08:59:36;;;;;;;17.50;10.80;;;13.10;99.90;;;;;;7343529;32;20637;-66
2022/10/08 09:04:20;;;;;;;20.12;9.95;;;13.30;99.90;;;;;;7341967;32;20115;-64
2022/10/08 09:08:36;;;;;;;15.43;9.27;;;13.40;99.90;;;;;;7344530;32;20252;-64
2022/10/08 09:12:42;;;;;;;16.48;8.55;;;13.70;99.90;;;;;;7339179;32;20141;-65
2022/10/08 09:16:44;;;;;;;14.07;7.60;;;13.70;99.90;;;;;;7343646;32;20193;-66
2022/10/08 09:20:46;;;;;;;14.82;6.93;;;13.50;99.90;;;;;;7342418;32;20209;-65
2022/10/08 09:24:58;;;;;;;17.37;7.78;;;13.50;99.90;;;;;;7345571;32;20126;-66
2022/10/08 09:29:02;;;;;;;13.52;7.15;;;13.90;99.90;;;;;;7353794;32;20257;-64
2022/10/08 09:33:04;;;;;;;13.70;5.68;;;14.30;99.90;;;;;;7347860;32;20114;-65
2022/10/08 09:37:18;;;;;;;12.13;6.18;;;14.40;99.90;;;;;;7344939;32;20198;-64
2022/10/08 09:41:20;;;;;;;14.75;6.15;;;14.20;99.90;;;;;;7345836;32;20111;-66
2022/10/08 09:45:39;;;;;;;16.12;5.35;;;14.20;99.90;;;;;;7352472;32;20218;-64
2022/10/08 09:49:42;;;;;;;16.20;4.97;;;13.90;99.90;;;;;;7349053;32;20116;-66
2022/10/08 09:53:53;;;;;;;11.45;4.53;;;14.70;99.90;;;;;;7345252;32;20556;-63
2022/10/08 09:57:59;;;;;;;9.82;4.40;;;15.40;99.90;;;;;;7347712;32;20133;-63
2022/10/08 10:02:06;;;;;;;7.65;4.18;;;16.00;99.90;;;;;;7338338;32;20130;-64
2022/10/08 10:06:08;;;;;;;;;;;16.40;99.90;;;;;;7337518;32;20138;-59
2022/10/08 10:10:24;;;;;;;10.93;3.80;;;16.50;99.90;;;;;;7346183;32;20018;-60
2022/10/08 10:14:43;;;;;;;11.27;3.50;;;16.40;99.90;;;;;;7343723;32;20194;-65
2022/10/08 10:18:58;;;;;;;9.40;3.50;;;15.80;99.90;;;;;;7349769;32;20107;-65
2022/10/08 10:23:21;;;;;;;10.30;3.90;;;15.40;99.90;;;;;;7341416;32;20524;-65
2022/10/08 10:27:41;;;;;;;6.25;2.22;;;14.80;99.90;;;;;;7340719;32;20134;-65
2022/10/08 10:31:49;;;;;;;9.65;2.42;;;14.70;99.90;;;;;;7350603;32;20153;-65
2022/10/08 10:35:54;;;;;;;7.15;2.37;;;14.80;99.90;;;;;;7348681;32;20137;-63
2022/10/08 10:40:05;;;;;;;8.25;2.37;;;14.90;99.90;;;;;;7340140;32;20294;-63
2022/10/08 10:44:14;;;;;;;8.35;2.05;;;15.00;99.90;;;;;;7345521;32;20224;-64
2022/10/08 10:48:16;;;;;;;8.02;2.28;;;14.70;99.90;;;;;;7338808;32;20202;-62
2022/10/08 10:52:55;;;;;;;5.95;1.27;;;14.70;99.90;;;;;;7337202;32;20583;-64
2022/10/08 10:57:03;;;;;;;6.30;1.40;;;14.40;99.90;;;;;;7348942;32;20139;-65
2022/10/08 11:01:19;;;;;;;5.68;1.42;;;14.20;99.90;;;;;;7348844;32;20286;-64
2022/10/08 11:05:22;;;;;;;5.25;1.15;;;14.10;99.90;;;;;;7339158;32;20480;-67
2022/10/08 11:09:41;;;;;;;6.65;0.80;;;14.10;99.90;;;;;;7342910;32;20190;-63
2022/10/08 11:14:04;;;;;;;5.57;0.75;;;14.10;99.90;;;;;;7336215;32;20178;-65
2022/10/08 11:18:38;;;;;;;4.28;0.85;;;14.20;99.90;;;;;;7339883;32;20624;-65
2022/10/08 11:22:53;;;;;;;11.23;1.20;;;14.30;99.90;;;;;;7337163;32;20129;-66
2022/10/08 11:27:13;;;;;;;5.03;1.20;;;14.40;99.90;;;;;;7340399;32;20214;-66
2022/10/08 11:31:22;;;;;;;4.32;1.10;;;14.50;99.90;;;;;;7344813;32;20129;-65
2022/10/08 11:36:01;;;;;;;7.62;1.10;;;14.80;99.90;;;;;;7338857;32;20133;-65
2022/10/08 11:40:26;;;;;;;3.08;0.90;;;15.10;99.90;;;;;;7343819;32;20138;-66
2022/10/08 11:44:29;;;;;;;5.97;1.08;;;15.30;99.90;;;;;;7338700;32;20591;-67
2022/10/08 11:48:33;;;;;;;4.57;0.65;;;15.80;99.90;;;;;;7352048;32;20127;-66
2022/10/08 11:52:36;;;;;;;4.55;0.70;;;15.60;99.90;;;;;;7346172;32;20106;-66
2022/10/08 11:56:44;;;;;;;3.97;0.77;;;15.20;99.90;;;;;;7344220;32;20115;-66
2022/10/08 12:00:46;;;;;;;4.57;0.85;;;14.80;99.90;;;;;;7341413;32;20124;-65
2022/10/08 12:04:49;;;;;;;5.87;0.80;;;14.60;99.90;;;;;;7339238;32;21013;-65
2022/10/08 12:08:56;;;;;;;2.67;0.60;;;14.60;99.90;;;;;;7348166;32;20574;-65
2022/10/08 12:13:04;;;;;;;6.50;0.95;;;14.70;99.90;;;;;;7349241;32;20157;-65
2022/10/08 12:17:07;;;;;;;5.95;0.68;;;14.90;99.90;;;;;;7342371;32;20783;-66
2022/10/08 12:21:15;;;;;;;4.90;0.90;;;15.10;99.90;;;;;;7340628;32;20527;-62
2022/10/08 12:25:40;;;;;;;5.68;0.77;;;14.90;99.90;;;;;;7341058;32;20260;-60
2022/10/08 12:30:05;;;;;;;7.47;1.00;;;14.80;99.90;;;;;;7341870;32;20180;-65
2022/10/08 12:34:16;;;;;;;3.67;0.80;;;14.80;99.90;;;;;;7339506;32;20266;-65
2022/10/08 12:38:24;;;;;;;5.45;0.80;;;15.00;99.90;;;;;;7339523;32;20115;-64
2022/10/08 12:42:31;;;;;;;7.55;0.95;;;15.30;99.90;;;;;;7340018;32;20335;-67
2022/10/08 12:46:51;;;;;;;3.28;0.88;;;15.70;99.90;;;;;;7340198;32;20194;-66
2022/10/08 12:50:53;;;;;;;5.55;0.90;;;15.60;99.90;;;;;;7338542;32;20688;-67
2022/10/08 12:54:58;;;;;;;3.12;0.68;;;15.60;99.90;;;;;;7341863;32;20111;-67
2022/10/08 12:59:03;;;;;;;5.43;0.60;;;15.70;99.90;;;;;;7337826;32;20123;-68
2022/10/08 13:03:11;;;;;;;4.03;0.93;;;16.00;99.90;;;;;;7338318;32;20102;-66
2022/10/08 13:07:27;;;;;;;9.52;0.65;;;16.00;99.90;;;;;;7342631;32;20116;-67
2022/10/08 13:11:29;;;;;;;4.25;0.80;;;15.90;99.90;;;;;;7340853;32;20115;-69
2022/10/08 13:15:33;;;;;;;3.67;0.70;;;16.10;99.90;;;;;;7347959;32;20119;-64
2022/10/08 13:19:39;;;;;;;4.10;0.82;;;16.20;99.90;;;;;;7343189;32;20133;-63
2022/10/08 13:23:43;;;;;;;4.47;1.02;;;16.20;99.90;;;;;;7344597;32;20511;-64
2022/10/08 13:28:04;;;;;;;4.45;0.77;;;16.40;99.90;;;;;;7342778;32;20107;-66
2022/10/08 13:32:12;;;;;;;5.07;1.02;;;16.80;99.90;;;;;;7340376;32;20229;-65
2022/10/08 13:36:20;;;;;;;6.28;0.65;;;16.90;99.90;;;;;;7341274;32;20137;-67
2022/10/08 13:40:23;;;;;;;4.75;0.90;;;16.90;99.90;;;;;;7335873;32;20111;-67
2022/10/08 13:44:26;;;;;;;2.83;0.88;;;16.70;99.90;;;;;;7344860;32;20284;-67
2022/10/08 13:48:28;;;;;;;3.40;0.60;;;16.70;99.90;;;;;;7343492;32;20115;-65
2022/10/08 13:52:32;;;;;;;3.50;0.70;;;16.70;99.90;;;;;;7341002;32;20150;-67
2022/10/08 13:56:34;;;;;;;3.92;0.60;;;16.80;99.90;;;;;;7331257;32;20279;-64
2022/10/08 14:00:40;;;;;;;2.78;0.50;;;16.50;99.90;;;;;;7344318;32;20112;-65
2022/10/08 14:04:41;;;;;;;4.12;0.75;;;16.60;99.90;;;;;;7337985;32;20116;-64
2022/10/08 14:08:43;;;;;;;6.65;0.82;;;16.80;99.90;;;;;;7341295;32;20186;-64
2022/10/08 14:12:45;;;;;;;3.55;0.50;;;16.90;99.90;;;;;;7345874;32;20125;-65
2022/10/08 14:16:47;;;;;;;7.05;0.85;;;17.10;99.90;;;;;;7351927;32;20143;-65
2022/10/08 14:20:50;;;;;;;3.30;0.68;;;17.20;99.90;;;;;;7351505;32;20173;-67
2022/10/08 14:24:52;;;;;;;2.60;0.55;;;17.30;99.90;;;;;;7338328;32;20225;-66
2022/10/08 14:28:54;;;;;;;4.93;0.65;;;17.10;99.90;;;;;;7341781;32;20129;-68
2022/10/08 14:32:55;;;;;;;4.95;0.80;;;17.00;99.90;;;;;;7343015;32;20153;-68
2022/10/08 14:36:58;;;;;;;5.78;0.80;;;17.00;99.90;;;;;;7346976;32;20262;-66
2022/10/08 14:40:59;;;;;;;4.47;0.70;;;16.80;99.90;;;;;;7351822;32;20129;-67
2022/10/08 14:45:01;;;;;;;2.97;0.50;;;16.60;99.90;;;;;;7346062;32;20580;-67
2022/10/08 14:49:04;;;;;;;2.80;0.52;;;16.50;99.90;;;;;;7344688;32;20535;-67
2022/10/08 14:53:05;;;;;;;3.33;0.77;;;16.30;99.90;;;;;;7347813;32;20129;-62
2022/10/08 14:57:07;;;;;;;5.53;0.68;;;16.10;99.90;;;;;;7348280;32;20198;-63
2022/10/08 15:01:09;;;;;;;2.00;0.60;;;16.30;99.90;;;;;;7344491;32;20537;-66
2022/10/08 15:05:11;;;;;;;2.95;0.62;;;16.10;99.90;;;;;;7338215;32;20774;-66
2022/10/08 15:09:15;;;;;;;2.97;0.62;;;15.90;99.90;;;;;;7340570;32;20112;-64
2022/10/08 15:13:17;;;;;;;3.60;0.62;;;15.90;99.90;;;;;;7348941;32;20225;-66
2022/10/08 15:17:19;;;;;;;4.05;0.55;;;15.90;99.90;;;;;;7346235;32;20115;-67
2022/10/08 15:21:20;;;;;;;4.47;0.65;;;15.90;99.90;;;;;;7347444;32;20145;-66
2022/10/08 15:25:22;;;;;;;2.37;0.50;;;15.80;99.90;;;;;;7350257;32;20272;-67
2022/10/08 15:29:24;;;;;;;2.33;0.50;;;15.80;99.90;;;;;;7352399;32;20190;-65
2022/10/08 15:33:26;;;;;;;3.87;0.75;;;15.90;99.90;;;;;;7349302;32;20516;-66
2022/10/08 15:37:27;;;;;;;6.82;1.25;;;15.80;99.90;;;;;;7346188;32;20950;-66
2022/10/08 15:41:33;;;;;;;1.92;0.50;;;15.50;99.90;;;;;;7352456;32;20170;-66
2022/10/08 15:45:41;;;;;;;3.37;0.40;;;15.60;99.90;;;;;;7347133;32;20108;-64
2022/10/08 15:49:45;;;;;;;5.65;0.55;;;15.40;99.90;;;;;;7338089;32;44370;-63
2022/10/08 15:53:47;;;;;;;3.12;0.70;;;15.20;99.90;;;;;;7340672;32;20554;-63
2022/10/08 15:57:49;;;;;;;2.42;0.43;;;15.00;99.90;;;;;;7349253;32;20153;-64
2022/10/08 16:01:50;;;;;;;3.65;0.62;;;14.90;99.90;;;;;;7340193;32;20133;-64
2022/10/08 16:05:58;;;;;;;2.37;0.50;;;14.90;99.90;;;;;;7340704;32;20141;-64
2022/10/08 16:10:01;;;;;;;4.72;0.70;;;14.70;99.90;;;;;;7340582;32;20491;-65
2022/10/08 16:14:07;;;;;;;2.15;0.68;;;14.60;99.90;;;;;;7342349;32;20116;-64
2022/10/08 16:18:09;;;;;;;3.60;0.85;;;14.60;99.90;;;;;;7334648;32;20135;-64
2022/10/08 16:22:10;;;;;;;6.18;0.77;;;14.40;99.90;;;;;;7342022;32;20497;-64
2022/10/08 16:26:19;;;;;;;4.95;0.90;;;14.20;99.90;;;;;;7348879;32;20129;-64
2022/10/08 16:30:20;;;;;;;4.43;1.00;;;14.10;99.90;;;;;;7339648;32;20252;-65
2022/10/08 16:34:25;;;;;;;5.93;0.90;;;13.80;99.90;;;;;;7338520;32;20223;-64
2022/10/08 16:38:28;;;;;;;3.72;0.90;;;13.90;99.90;;;;;;7337899;32;20200;-62
2022/10/08 16:42:30;;;;;;;5.45;0.70;;;13.70;99.90;;;;;;7339616;32;20252;-64
2022/10/08 16:46:35;;;;;;;5.07;0.85;;;13.60;99.90;;;;;;7338045;32;20131;-65
2022/10/08 16:50:41;;;;;;;5.78;1.40;;;13.50;99.90;;;;;;7344448;32;20245;-64
2022/10/08 16:54:42;;;;;;;6.45;0.73;;;13.30;99.90;;;;;;7336839;32;20123;-65
2022/10/08 16:58:49;;;;;;;5.00;1.08;;;13.20;99.90;;;;;;7345903;32;20111;-64
2022/10/08 17:02:51;;;;;;;3.33;0.95;;;13.10;99.90;;;;;;7345539;32;20115;-65
2022/10/08 17:06:53;;;;;;;2.03;0.70;;;13.10;99.90;;;;;;7337673;32;20112;-64
2022/10/08 17:10:55;;;;;;;6.68;1.20;;;12.90;99.90;;;;;;7346610;32;20491;-64
2022/10/08 17:14:57;;;;;;;3.65;1.48;;;12.70;99.90;;;;;;7342119;32;20126;-63
2022/10/08 17:18:59;;;;;;;4.47;1.48;;;12.40;99.90;;;;;;7343847;32;20145;-64
2022/10/08 17:23:01;;;;;;;3.55;1.35;;;12.10;99.90;;;;;;7350019;32;20108;-64
2022/10/08 17:27:03;;;;;;;5.80;1.30;;;11.90;99.90;;;;;;7333968;32;20145;-64
2022/10/08 17:31:07;;;;;;;5.62;1.50;;;11.60;99.90;;;;;;7341223;32;20604;-65
2022/10/08 17:35:09;;;;;;;9.95;2.10;;;11.30;99.90;;;;;;7337277;32;20114;-64
2022/10/08 17:39:13;;;;;;;4.32;1.70;;;11.10;99.90;;;;;;7345109;32;20150;-63
2022/10/08 17:43:14;;;;;;;5.47;2.30;;;10.90;99.90;;;;;;7347400;32;20194;-60
2022/10/08 17:47:16;;;;;;;8.70;2.83;;;10.70;99.90;;;;;;7344886;32;20099;-59
2022/10/08 17:51:21;;;;;;;9.15;2.55;;;10.40;99.90;;;;;;7348966;32;20501;-60
2022/10/08 17:55:22;;;;;;;25.05;17.35;;;10.20;99.90;;;;;;7339448;32;20099;-62
2022/10/08 17:59:24;;;;;;;14.18;11.10;;;10.10;99.90;;;;;;7351674;32;20126;-61
2022/10/08 18:03:26;;;;;;;31.75;24.15;;;9.90;99.90;;;;;;7342595;32;20237;-60
2022/10/08 18:07:27;;;;;;;13.13;9.20;;;9.80;99.90;;;;;;7342719;32;20186;-61
2022/10/08 18:11:31;;;;;;;5.70;3.28;;;9.70;99.90;;;;;;7347853;32;20836;-63
2022/10/08 18:15:35;;;;;;;9.50;4.47;;;9.60;99.90;;;;;;7351392;32;20115;-63
2022/10/08 18:19:37;;;;;;;9.00;5.30;;;9.40;99.90;;;;;;7344322;32;20474;-63
2022/10/08 18:23:42;;;;;;;7.95;2.40;;;9.30;99.90;;;;;;7354363;32;20165;-64
2022/10/08 18:27:44;;;;;;;10.45;1.98;;;9.10;99.90;;;;;;7350472;32;20220;-65
2022/10/08 18:31:45;;;;;;;7.12;2.00;;;9.00;99.90;;;;;;7347654;32;20107;-65
2022/10/08 18:35:47;;;;;;;8.93;3.70;;;8.90;99.90;;;;;;7344088;32;20145;-63
2022/10/08 18:39:49;;;;;;;6.25;2.60;;;8.80;99.90;;;;;;7351051;32;20111;-63
2022/10/08 18:43:51;;;;;;;8.40;3.42;;;8.70;99.90;;;;;;7348285;32;20201;-64
2022/10/08 18:47:52;;;;;;;12.13;6.07;;;8.60;99.90;;;;;;7344604;32;20600;-64
2022/10/08 18:51:54;;;;;;;12.18;4.45;;;8.60;99.90;;;;;;7338989;32;20103;-64
2022/10/08 18:55:56;;;;;;;8.77;3.40;;;8.50;99.90;;;;;;7344826;32;20233;-63
2022/10/08 18:59:57;;;;;;;9.32;3.30;;;8.40;99.90;;;;;;7339966;32;22698;-64
2022/10/08 19:04:01;;;;;;;7.47;2.85;;;8.30;99.90;;;;;;7344348;32;20538;-64
2022/10/08 19:08:03;;;;;;;7.93;3.40;;;8.20;99.90;;;;;;7341741;32;20150;-64
2022/10/08 19:12:06;;;;;;;16.15;6.80;;;8.10;99.90;;;;;;7342450;32;20153;-62
2022/10/08 19:16:12;;;;;;;28.02;19.75;;;8.00;99.90;;;;;;7341081;32;20228;-65
2022/10/08 19:20:14;;;;;;;27.40;18.75;;;8.00;99.90;;;;;;7340230;32;20130;-63
2022/10/08 19:24:18;;;;;;;17.95;11.48;;;7.90;99.90;;;;;;7345555;32;20107;-63
2022/10/08 19:28:20;;;;;;;14.90;9.10;;;7.90;99.90;;;;;;7347370;32;20134;-62
2022/10/08 19:32:22;;;;;;;16.90;8.48;;;7.90;99.90;;;;;;7343092;32;20137;-64
2022/10/08 19:36:25;;;;;;;26.17;12.02;;;7.80;99.90;;;;;;7345765;32;20133;-63
2022/10/08 19:40:27;;;;;;;20.30;8.75;;;7.70;99.90;;;;;;7341428;32;20099;-63
2022/10/08 19:44:28;;;;;;;52.00;29.17;;;7.60;99.90;;;;;;7338478;32;20190;-62
2022/10/08 19:48:31;;;;;;;43.10;23.38;;;7.50;99.90;;;;;;7338713;32;20139;-61
2022/10/08 19:52:32;;;;;;;22.85;11.90;;;7.50;99.90;;;;;;7345850;32;20123;-61
2022/10/08 19:56:35;;;;;;;26.67;12.70;;;7.40;99.90;;;;;;7346181;32;20115;-61
2022/10/08 20:00:36;;;;;;;15.88;7.90;;;7.30;99.90;;;;;;7338091;32;20222;-61
2022/10/08 20:04:38;;;;;;;17.42;9.02;;;7.30;99.90;;;;;;7346117;32;20866;-61
2022/10/08 20:08:40;;;;;;;16.23;3.72;;;7.30;99.90;;;;;;7337887;32;20550;-61
2022/10/08 20:12:43;;;;;;;6.55;1.92;;;7.30;99.90;;;;;;7340740;32;20527;-62
2022/10/08 20:16:44;;;;;;;5.93;1.75;;;7.20;99.90;;;;;;7340784;32;20133;-62
2022/10/08 20:20:46;;;;;;;6.60;2.03;;;7.10;99.90;;;;;;7344011;32;20171;-62
2022/10/08 20:24:48;;;;;;;11.40;4.93;;;7.10;99.90;;;;;;7341033;32;20197;-61
2022/10/08 20:28:56;;;;;;;5.80;1.90;;;7.00;99.90;;;;;;7343909;32;20153;-62
2022/10/08 20:32:59;;;;;;;3.92;1.45;;;7.00;99.90;;;;;;7340073;32;20119;-65
2022/10/08 20:37:01;;;;;;;6.37;1.70;;;6.90;99.90;;;;;;7344290;32;20924;-65
2022/10/08 20:41:03;;;;;;;9.90;2.30;;;6.90;99.90;;;;;;7337079;32;20137;-62
2022/10/08 20:45:06;;;;;;;5.78;2.00;;;6.90;99.90;;;;;;7345596;32;20141;-63
2022/10/08 20:49:10;;;;;;;7.40;2.15;;;6.80;99.90;;;;;;7343876;32;20482;-61
2022/10/08 20:53:12;;;;;;;5.45;1.90;;;6.70;99.90;;;;;;7342990;32;20108;-62
2022/10/08 20:57:13;;;;;;;7.57;1.92;;;6.70;99.90;;;;;;7345762;32;20112;-62
2022/10/08 21:01:25;;;;;;;6.45;2.67;;;6.70;99.90;;;;;;7347272;32;20127;-62
2022/10/08 21:05:26;;;;;;;6.20;2.20;;;6.60;99.90;;;;;;7342443;32;21679;-60
2022/10/08 21:09:28;;;;;;;5.35;2.22;;;6.60;99.90;;;;;;7340417;32;20206;-60